All
Yea Airport YEAT Weather
There is no TAF data available at YEAT. Showing TAF data for YMNG (26 mi NW).
YMNG Terminal Area Forecast (no data for YEAT)
| Here is the undecoded forecast: 2026/05/03 02:57 YMNG 030257Z 0302/0314 35014KT 9999 -RA FEW010 SCT040 FM030700 36010KT 9999 NSW BKN015 FM031000 36008KT 9999 FEW008 TEMPO 0302/0304 VRB15G35KT 2000 TSRA BKN004 SCT020CB TEMPO 0304/0306 03015G25KT 3000 RA BKN006 PROB30 TEMPO 0304/0305 VRB15G35KT 2000 TSRA BKN004 SCT020CB RMK T 16 17 15 13 Q 1013 1011 1012 1014 |
There is no METAR data available at YEAT. Showing METAR data for YMNG (26 mi NW).
Recent YMNG METAR history (no data for YEAT)
| Date | Time (AEST) | Flight Rules | Wind Dir. | Speed | Type | Height AGL (ft) | Visibility | Temp (°C) | Temp (°F) | Dew Point (°C) | Dew Point (°F) | Rel. Humid. | Pressure | Density Altitude | Remarks |
|---|---|---|---|---|---|---|---|---|---|---|---|---|---|---|---|
| 04-May | 03:00AM | BCAT1 | 40° | 6 kt | 250 meters |
10° | 50° | 9° | 48° | 93% | 1013 mb | -127 ft | |||
| 04-May | 02:03AM | MVFR | 360° | 4 kt | 6000 meters |
12° | 53° | 11° | 51° | 94% | 1013 mb | 113 ft | |||
| 04-May | 01:00AM | VFR | 40° | 7 kt | 10000 meters | 12° | 53° | 11° | 51° | 94% | 1013 mb | 113 ft | |||
| 04-May | 12:00AM | VFR | 50° | 7 kt | 10000 meters | 13° | 55° | 12° | 53° | 94% | 1014 mb | 204 ft | |||
| 03-May | 11:00PM | VFR | 30° | 5 kt | 10000 meters | 12° | 53° | 11° | 51° | 94% | 1014 mb | 84 ft | |||
| 03-May | 10:00PM | VFR | 30° | 6 kt | 10000 meters | 13° | 55° | 12° | 53° | 94% | 1014 mb | 204 ft | |||
| 03-May | 09:00PM | VFR | 50° | 8 kt | 10000 meters | 13° | 55° | 12° | 53° | 94% | 1014 mb | 204 ft | |||
| 03-May | 08:00PM | VFR | 40° | 6 kt | 10000 meters | 13° | 55° | 12° | 53° | 94% | 1014 mb | 204 ft | |||
| 03-May | 07:00PM | VFR | 20° | 5 kt | 10000 meters | 13° | 55° | 12° | 53° | 94% | 1013 mb | 233 ft | |||
| 03-May | 06:00PM | VFR | 350° | 5 kt | 10000 meters | 14° | 57° | 12° | 53° | 88% | 1012 mb | 383 ft | |||
| 03-May | 05:00PM | VFR | 350° | 5 kt | 10000 meters | 15° | 59° | 13° | 55° | 88% | 1012 mb | 503 ft | |||
| 03-May | 04:00PM | VFR | 320° | 6 kt | 10000 meters | 15° | 59° | 14° | 57° | 94% | 1012 mb | 503 ft | |||
| 03-May | 03:00PM | VFR | 310° | 8 kt | 10000 meters |
15° | 59° | 14° | 57° | 94% | 1012 mb | 503 ft | |||
| 03-May | 02:06PM | MVFR | 360° | 11 kt | Scattered Broken Broken |
1,100 1,400 2,300 |
6000 meters |
17° | 62° | 16° | 60° | 94% | 1011 mb | 772 ft | |
| 03-May | 01:04PM | IFR | 30° | 12 kt | 4200 meters |
17° | 62° | 17° | 62° | 100% | 1012 mb | 743 ft | |||
| 03-May | 12:00PM | MVFR | 40° | 11 kt | 5000 meters | 16° | 60° | 16° | 60° | 100% | 1013 mb | 593 ft | |||
| 03-May | 11:00AM | MVFR | 360° | 9 kt | 5000 meters |
17° | 62° | 16° | 60° | 94% | 1014 mb | 684 ft | Thunderstorms | ||
| 03-May | 10:08AM | VFR | 40° | 13 kt | 10000 meters | 17° | 62° | 15° | 59° | 88% | 1013 mb | 713 ft | |||
| 03-May | 09:00AM | VFR | 50° | 15 kt | 10000 meters | 18° | 64° | 15° | 59° | 83% | 1013 mb | 833 ft | |||
| 03-May | 08:00AM | VFR | 50° | 13 kt | 10000 meters | 17° | 62° | 15° | 59° | 88% | 1013 mb | 713 ft | |||
| 03-May | 07:00AM | VFR | 60° | 10 kt | 10000 meters | 16° | 60° | 15° | 59° | 94% | 1013 mb | 593 ft | |||
| 03-May | 06:00AM | VFR | 60° | 9 kt | 10000 meters | 16° | 60° | 14° | 57° | 88% | 1014 mb | 564 ft | |||
| 03-May | 05:00AM | VFR | 60° | 7 kt | 10000 meters | 16° | 60° | 14° | 57° | 88% | 1014 mb | 564 ft | |||
| 03-May | 04:00AM | VFR | 30° | 5 kt | 10000 meters | 16° | 60° | 13° | 55° | 82% | 1014 mb | 564 ft |
Login
| Your browser is unsupported. upgrade your browser |
